createdAt,value
2019-03-12T00:00:23.081Z,53.34
2019-03-12T00:02:53.736Z,53.21
2019-03-12T00:05:23.592Z,52.85
2019-03-12T00:07:54.118Z,52.96
2019-03-12T00:10:24.070Z,52.99
2019-03-12T00:12:54.602Z,53.24
2019-03-12T00:15:24.664Z,53.76
2019-03-12T00:17:55.188Z,53.91
2019-03-12T00:20:25.040Z,54.32
2019-03-12T00:22:55.468Z,54.51
2019-03-12T00:25:25.532Z,54.43
2019-03-12T00:27:55.955Z,54.26
2019-03-12T00:30:26.018Z,54.55
2019-03-12T00:32:56.545Z,54.54
2019-03-12T00:35:26.604Z,55.06
2019-03-12T00:37:57.111Z,55.28
2019-03-12T00:40:28.111Z,55.04
2019-03-12T00:42:58.845Z,55.46
2019-03-12T00:45:29.373Z,55.24
2019-03-12T00:48:01.882Z,55.59
2019-03-12T00:50:31.836Z,55.56
2019-03-12T00:53:02.350Z,55.25
2019-03-12T00:55:32.217Z,54.25
2019-03-12T00:58:02.755Z,53.49
2019-03-12T01:00:33.400Z,53.66
2019-03-12T01:03:03.626Z,53.24
2019-03-12T01:05:33.613Z,52.89
2019-03-12T01:08:04.115Z,52.86
2019-03-12T01:10:34.660Z,52.78
2019-03-12T01:13:06.164Z,52.31
2019-03-12T01:15:36.700Z,52.59
2019-03-12T01:18:07.330Z,52.73
2019-03-12T01:20:38.003Z,52.41
2019-03-12T01:23:07.962Z,52.73
2019-03-12T01:25:38.469Z,52.18
2019-03-12T01:28:09.016Z,51.51
2019-03-12T01:30:39.583Z,51.75
2019-03-12T01:33:09.536Z,51.22
2019-03-12T01:35:40.070Z,50.89
2019-03-12T01:38:10.031Z,51.02
2019-03-12T01:40:41.576Z,51.12
2019-03-12T01:43:12.215Z,51.53
2019-03-12T01:45:42.181Z,51.76
2019-03-12T01:48:12.595Z,51.55
2019-03-12T01:50:42.678Z,51.48
2019-03-12T01:53:13.198Z,51.91
2019-03-12T01:55:43.731Z,51.46
2019-03-12T01:58:14.747Z,51.56
2019-03-12T02:00:45.341Z,51.27
2019-03-12T02:03:15.319Z,51.52
2019-03-12T02:05:45.841Z,51.49
2019-03-12T02:08:15.692Z,51.54
2019-03-12T02:10:46.227Z,52.14
2019-03-12T02:13:16.287Z,51.78
2019-03-12T02:15:46.811Z,51.77
2019-03-12T02:18:16.881Z,51.92
2019-03-12T02:20:47.380Z,52.08
2019-03-12T02:23:17.250Z,51.81
2019-03-12T02:25:47.750Z,52.13
2019-03-12T02:28:18.534Z,52.46
2019-03-12T02:30:49.110Z,52.16
2019-03-12T02:33:19.148Z,52.38
2019-03-12T02:35:49.675Z,52.45
2019-03-12T02:38:20.209Z,52.54
2019-03-12T02:40:51.311Z,52.70
2019-03-12T02:43:22.021Z,52.54
2019-03-12T02:45:52.568Z,52.38
2019-03-12T02:48:22.434Z,52.04
2019-03-12T02:50:52.969Z,51.79
2019-03-12T02:53:23.625Z,52.17
2019-03-12T02:55:54.275Z,51.80
2019-03-12T02:58:24.906Z,52.09
2019-03-12T03:00:54.772Z,52.04
2019-03-12T03:03:25.307Z,52.04
2019-03-12T03:05:57.495Z,52.55
2019-03-12T03:08:29.679Z,52.16
2019-03-12T03:11:00.326Z,52.59
2019-03-12T03:13:30.984Z,51.97
2019-03-12T03:16:01.517Z,52.52
2019-03-12T03:18:32.370Z,52.76
2019-03-12T03:21:02.347Z,52.66
2019-03-12T03:23:32.852Z,52.32
2019-03-12T03:26:03.506Z,52.40
2019-03-12T03:28:33.371Z,52.30
2019-03-12T03:31:03.960Z,52.36
2019-03-12T03:33:34.788Z,52.68
2019-03-12T03:36:05.412Z,52.79
2019-03-12T03:38:36.064Z,52.63
2019-03-12T03:41:07.189Z,51.89
2019-03-12T03:43:37.578Z,52.92
2019-03-12T03:46:07.426Z,52.23
2019-03-12T03:48:37.953Z,52.35
2019-03-12T03:51:08.614Z,52.50
2019-03-12T03:53:38.569Z,53.21
2019-03-12T03:56:09.070Z,52.31
2019-03-12T03:58:39.627Z,52.52
2019-03-12T04:01:10.173Z,52.02
2019-03-12T04:03:40.158Z,52.19
2019-03-12T04:06:10.561Z,51.70
2019-03-12T04:08:41.105Z,52.29
2019-03-12T04:11:11.084Z,52.22
2019-03-12T04:13:41.498Z,52.31
2019-03-12T04:16:11.456Z,53.37
2019-03-12T04:18:41.990Z,54.30
2019-03-12T04:21:12.622Z,53.03
2019-03-12T04:23:43.172Z,52.61
2019-03-12T04:26:13.736Z,52.42
2019-03-12T04:28:43.857Z,51.80
2019-03-12T04:31:14.328Z,52.04
2019-03-12T04:34:02.958Z,52.42
2019-03-12T04:36:33.629Z,52.48
2019-03-12T04:39:05.014Z,52.27
2019-03-12T04:41:35.650Z,52.99
2019-03-12T04:44:06.095Z,54.29
2019-03-12T04:46:36.054Z,53.52
2019-03-12T04:49:06.459Z,53.42
2019-03-12T04:51:36.538Z,53.69
2019-03-12T04:54:06.945Z,54.11
2019-03-12T04:56:37.126Z,52.98
2019-03-12T04:59:07.645Z,54.37
2019-03-12T05:01:37.713Z,52.27
2019-03-12T05:04:08.220Z,51.59
2019-03-12T05:06:38.772Z,51.21
2019-03-12T05:09:09.545Z,51.65
2019-03-12T05:11:40.296Z,51.89
2019-03-12T05:14:25.145Z,52.11
2019-03-12T05:16:58.272Z,52.29
2019-03-12T05:19:30.007Z,52.74
2019-03-12T05:22:00.389Z,53.33
2019-03-12T05:24:31.246Z,53.28
2019-03-12T05:27:01.903Z,53.70
2019-03-12T05:29:32.641Z,54.31
2019-03-12T05:32:03.288Z,54.61
2019-03-12T05:34:34.142Z,54.65
2019-03-12T05:37:04.812Z,53.40
2019-03-12T05:39:35.460Z,54.70
2019-03-12T05:42:06.342Z,55.56
2019-03-12T05:44:36.956Z,54.60
2019-03-12T05:47:08.295Z,54.52
2019-03-12T05:49:39.081Z,54.46
2019-03-12T05:52:09.948Z,54.36
2019-03-12T05:54:40.601Z,54.20
2019-03-12T05:57:10.560Z,54.48
2019-03-12T05:59:41.086Z,54.56
2019-03-12T06:02:11.722Z,54.94
2019-03-12T06:04:41.800Z,55.04
2019-03-12T06:07:12.325Z,54.79
2019-03-12T06:09:42.959Z,54.96
2019-03-12T06:12:13.505Z,55.33
2019-03-12T06:14:43.586Z,54.60
2019-03-12T06:17:14.009Z,54.40
2019-03-12T06:19:44.555Z,54.00
2019-03-12T06:22:15.210Z,54.19
2019-03-12T06:24:45.862Z,54.40
2019-03-12T06:27:18.183Z,54.22
2019-03-12T06:29:48.680Z,54.51
2019-03-12T06:32:20.400Z,54.40
2019-03-12T06:34:52.559Z,53.80
2019-03-12T06:37:27.611Z,53.36
2019-03-12T06:40:08.368Z,53.76
2019-03-12T06:42:44.666Z,52.71
2019-03-12T06:45:33.502Z,51.83
2019-03-12T06:48:05.808Z,51.64
2019-03-12T06:50:38.076Z,51.92
2019-03-12T06:53:16.416Z,50.91
2019-03-12T06:56:03.839Z,51.05
2019-03-12T06:58:51.571Z,51.11
2019-03-12T07:01:29.995Z,50.16
2019-03-12T07:04:08.422Z,49.42
2019-03-12T07:07:00.712Z,49.35
2019-03-12T07:09:49.209Z,49.10
2019-03-12T07:12:37.155Z,48.99
2019-03-12T07:15:23.318Z,48.37
2019-03-12T07:17:55.711Z,48.79
2019-03-12T07:20:37.426Z,48.07
2019-03-12T07:23:15.422Z,46.09
2019-03-12T07:25:50.655Z,46.14
2019-03-12T07:28:49.528Z,46.63
2019-03-12T07:31:14.447Z,46.49
2019-03-12T07:34:02.936Z,47.14
2019-03-12T07:36:41.571Z,46.17
2019-03-12T07:39:20.307Z,45.95
2019-03-12T07:41:52.574Z,45.63
2019-03-12T07:44:31.740Z,46.37
2019-03-12T07:47:04.122Z,45.88
2019-03-12T07:49:36.310Z,45.56
2019-03-12T07:52:08.971Z,45.03
2019-03-12T07:54:47.020Z,45.04
2019-03-12T07:57:31.682Z,45.20
2019-03-12T08:00:10.146Z,43.58
2019-03-12T08:02:42.499Z,44.23
2019-03-12T08:05:21.114Z,44.09
2019-03-12T08:07:53.299Z,43.77
2019-03-12T08:10:43.788Z,44.41
2019-03-12T08:13:32.549Z,43.99
2019-03-12T08:16:04.953Z,43.37
2019-03-12T08:18:43.174Z,42.61
2019-03-12T08:21:27.510Z,42.70
2019-03-12T08:24:14.950Z,42.29
2019-03-12T08:26:52.641Z,41.67
2019-03-12T08:29:24.947Z,41.71
2019-03-12T08:32:00.101Z,41.87
2019-03-12T08:34:41.288Z,40.49
2019-03-12T08:37:13.675Z,40.35
2019-03-12T08:40:02.413Z,40.38
2019-03-12T08:42:54.055Z,40.06
2019-03-12T08:45:34.619Z,39.38
2019-03-12T08:48:12.634Z,38.67
2019-03-12T08:50:43.884Z,38.86
2019-03-12T08:53:18.730Z,39.55
2019-03-12T08:55:59.814Z,38.53
2019-03-12T08:58:32.100Z,37.38
2019-03-12T09:01:07.457Z,37.68
2019-03-12T09:03:51.402Z,36.05
2019-03-12T09:06:23.592Z,35.80
2019-03-12T09:08:58.858Z,35.91
2019-03-12T09:11:46.269Z,35.91
2019-03-12T09:14:24.281Z,36.42
2019-03-12T09:17:02.229Z,36.14
2019-03-12T09:19:34.299Z,36.86
2019-03-12T09:22:06.694Z,37.97
2019-03-12T09:24:48.063Z,39.23
2019-03-12T09:27:23.118Z,39.29
2019-03-12T09:29:55.311Z,38.13
2019-03-12T09:32:27.788Z,38.11
2019-03-12T09:35:15.112Z,37.58
2019-03-12T09:37:59.485Z,38.03
2019-03-12T09:40:37.791Z,38.64
2019-03-12T09:43:13.247Z,38.63
2019-03-12T09:45:48.417Z,37.97
2019-03-12T09:48:27.140Z,38.81
2019-03-12T09:50:59.437Z,38.28
2019-03-12T09:53:40.725Z,37.34
2019-03-12T09:56:15.976Z,37.79
2019-03-12T09:58:51.318Z,38.10
2019-03-12T10:01:39.049Z,37.81
2019-03-12T10:04:13.808Z,37.40
2019-03-12T10:06:55.097Z,36.75
2019-03-12T10:09:43.835Z,36.49
2019-03-12T10:12:21.848Z,34.25
2019-03-12T10:15:05.592Z,33.98
2019-03-12T10:17:43.815Z,33.40
2019-03-12T10:20:24.997Z,34.40
2019-03-12T10:22:57.186Z,33.99
2019-03-12T10:25:35.300Z,32.74
2019-03-12T10:28:07.486Z,33.45
2019-03-12T10:30:48.793Z,31.34
2019-03-12T10:33:36.095Z,33.51
2019-03-12T10:36:14.590Z,34.19
2019-03-12T10:39:32.649Z,33.03
2019-03-12T10:42:08.088Z,33.76
2019-03-12T10:44:52.359Z,33.39
2019-03-12T10:47:27.389Z,34.08
2019-03-12T10:49:58.043Z,34.75
2019-03-12T10:52:28.021Z,34.01
2019-03-12T10:55:11.740Z,32.88
2019-03-12T10:57:30.528Z,32.14
2019-03-12T11:00:00.973Z,31.43
2019-03-12T11:02:31.524Z,32.90
2019-03-12T11:05:02.055Z,32.90
2019-03-12T11:07:32.134Z,33.18
2019-03-12T11:10:02.551Z,32.90
2019-03-12T11:12:32.422Z,32.71
2019-03-12T11:15:02.940Z,30.55
2019-03-12T11:17:32.890Z,31.19
2019-03-12T11:20:03.817Z,33.09
2019-03-12T11:22:34.071Z,32.47
2019-03-12T11:25:06.046Z,32.51
2019-03-12T11:27:36.283Z,31.92
2019-03-12T11:30:07.998Z,32.49
2019-03-12T11:32:38.505Z,33.30
2019-03-12T11:35:09.061Z,31.73
2019-03-12T11:37:39.211Z,31.25
2019-03-12T11:40:13.869Z,30.76
2019-03-12T11:42:44.300Z,31.59
2019-03-12T11:45:18.156Z,32.09
2019-03-12T11:47:47.341Z,33.01
2019-03-12T11:50:22.430Z,31.80
2019-03-12T11:52:56.980Z,31.74
2019-03-12T11:55:25.005Z,30.61
2019-03-12T11:57:54.974Z,31.85
2019-03-12T12:00:39.250Z,31.82
2019-03-12T12:03:09.965Z,31.83
2019-03-12T12:05:40.193Z,33.12
2019-03-12T12:08:11.613Z,32.17
2019-03-12T12:10:42.229Z,32.02
2019-03-12T12:13:12.959Z,31.61
2019-03-12T12:15:43.722Z,33.00
2019-03-12T12:18:13.706Z,33.70
2019-03-12T12:20:44.220Z,33.62
2019-03-12T12:23:14.283Z,33.24
2019-03-12T12:25:44.687Z,32.44
2019-03-12T12:28:15.361Z,32.59
2019-03-12T12:30:45.420Z,32.75
2019-03-12T12:33:15.842Z,32.80
2019-03-12T12:35:45.907Z,32.53
2019-03-12T12:38:16.431Z,32.64
2019-03-12T12:40:46.492Z,32.50
2019-03-12T12:43:16.905Z,33.00
2019-03-12T12:45:46.976Z,32.85
2019-03-12T12:48:18.529Z,33.09
2019-03-12T12:51:02.536Z,33.75
2019-03-12T12:53:21.444Z,34.22
2019-03-12T12:55:51.995Z,33.86
2019-03-12T12:58:21.967Z,33.02
2019-03-12T13:00:52.486Z,33.25
2019-03-12T13:03:22.451Z,33.49
2019-03-12T13:05:55.478Z,33.85
2019-03-12T13:08:25.152Z,34.47
2019-03-12T13:10:55.701Z,34.65
2019-03-12T13:13:26.267Z,34.33
2019-03-12T13:15:56.697Z,34.83
2019-03-12T13:18:26.667Z,34.46
2019-03-12T13:20:57.181Z,34.73
2019-03-12T13:23:27.052Z,34.94
2019-03-12T13:25:57.582Z,34.68
2019-03-12T13:28:27.646Z,34.54
2019-03-12T13:30:58.048Z,34.21
2019-03-12T13:33:28.702Z,34.48
2019-03-12T13:35:59.251Z,34.68
2019-03-12T13:38:44.853Z,34.85
2019-03-12T13:41:03.507Z,35.07
2019-03-12T13:43:33.868Z,35.14
2019-03-12T13:46:04.421Z,35.80
2019-03-12T13:48:35.441Z,35.98
2019-03-12T13:51:05.067Z,35.89
2019-03-12T13:53:36.081Z,35.83
2019-03-12T13:56:06.747Z,35.98
2019-03-12T13:58:37.691Z,35.97
2019-03-12T14:01:08.349Z,35.88
2019-03-12T14:03:38.994Z,35.40
2019-03-12T14:06:09.644Z,35.51
2019-03-12T14:08:40.300Z,35.79
2019-03-12T14:11:10.254Z,35.40
2019-03-12T14:13:40.781Z,35.60
2019-03-12T14:16:10.842Z,35.63
2019-03-12T14:18:41.367Z,35.71
2019-03-12T14:21:12.972Z,36.15
2019-03-12T14:23:58.714Z,36.00
2019-03-12T14:26:29.054Z,35.68
2019-03-12T14:28:59.135Z,35.54
2019-03-12T14:31:29.659Z,35.78
2019-03-12T14:34:00.311Z,35.64
2019-03-12T14:36:30.962Z,35.64
2019-03-12T14:39:01.596Z,35.44
2019-03-12T14:41:31.575Z,35.54
2019-03-12T14:44:02.084Z,35.87
2019-03-12T14:46:32.733Z,36.33
2019-03-12T14:49:03.019Z,36.69
2019-03-12T14:51:42.523Z,36.62
2019-03-12T14:54:13.695Z,36.63
2019-03-12T14:56:43.929Z,37.52
2019-03-12T14:59:14.010Z,37.69
2019-03-12T15:01:44.432Z,37.91
2019-03-12T15:04:15.187Z,37.78
2019-03-12T15:06:45.252Z,37.51
2019-03-12T15:09:15.960Z,37.80
2019-03-12T15:11:46.613Z,38.13
2019-03-12T15:14:17.170Z,37.73
2019-03-12T15:16:47.244Z,38.57
2019-03-12T15:19:17.750Z,38.30
2019-03-12T15:21:47.719Z,38.68
2019-03-12T15:24:18.242Z,38.75
2019-03-12T15:26:49.113Z,38.79
2019-03-12T15:29:19.638Z,39.09
2019-03-12T15:32:03.122Z,38.74
2019-03-12T15:34:22.292Z,39.11
2019-03-12T15:36:52.352Z,39.61
2019-03-12T15:39:22.774Z,41.01
2019-03-12T15:41:54.039Z,41.15
2019-03-12T15:44:23.993Z,40.57
2019-03-12T15:46:54.527Z,40.58
2019-03-12T15:49:25.487Z,40.67
2019-03-12T15:51:56.315Z,43.46
2019-03-12T15:54:27.180Z,44.39
2019-03-12T15:56:57.933Z,44.07
2019-03-12T15:59:28.701Z,43.76
2019-03-12T16:01:59.354Z,42.56
2019-03-12T16:04:30.091Z,43.29
2019-03-12T16:07:01.887Z,45.34
2019-03-12T16:09:32.540Z,44.84
2019-03-12T16:12:03.275Z,43.12
2019-03-12T16:14:33.942Z,43.13
2019-03-12T16:17:04.781Z,44.63
2019-03-12T16:19:35.535Z,47.11
2019-03-12T16:22:06.306Z,46.21
2019-03-12T16:24:36.942Z,47.27
2019-03-12T16:27:07.798Z,48.48
2019-03-12T16:29:38.671Z,47.56
2019-03-12T16:32:09.425Z,46.88
2019-03-12T16:34:40.059Z,44.71
2019-03-12T16:37:10.932Z,45.79
2019-03-12T16:39:41.675Z,47.36
2019-03-12T16:42:12.424Z,47.16
2019-03-12T16:44:43.192Z,48.86
2019-03-12T16:47:14.034Z,50.32
2019-03-12T16:49:44.891Z,50.35
2019-03-12T16:52:15.765Z,49.29
2019-03-12T16:54:46.502Z,50.15
2019-03-12T16:57:17.372Z,49.96
2019-03-12T16:59:48.126Z,49.87
2019-03-12T17:02:18.863Z,51.57
2019-03-12T17:04:49.739Z,49.35
2019-03-12T17:07:20.592Z,48.42
2019-03-12T17:09:51.344Z,50.79
2019-03-12T17:12:21.983Z,51.90
2019-03-12T17:14:52.841Z,51.88
2019-03-12T17:17:23.614Z,52.73
2019-03-12T17:19:54.465Z,52.28
2019-03-12T17:22:24.513Z,54.29
2019-03-12T17:24:54.849Z,55.68
2019-03-12T17:27:28.358Z,55.96
2019-03-12T17:30:00.403Z,57.00
2019-03-12T17:32:32.728Z,57.57
2019-03-12T17:35:03.363Z,56.39
2019-03-12T17:37:33.331Z,56.54
2019-03-12T17:40:04.055Z,57.07
2019-03-12T17:42:34.933Z,58.01
2019-03-12T17:45:08.397Z,58.51
2019-03-12T17:47:39.021Z,59.19
2019-03-12T17:50:12.285Z,59.50
2019-03-12T17:52:42.957Z,60.60
2019-03-12T17:55:15.355Z,62.28
2019-03-12T17:57:45.879Z,63.13
2019-03-12T18:00:22.365Z,63.91
2019-03-12T18:02:53.233Z,63.39
2019-03-12T18:05:24.089Z,62.77
2019-03-12T18:07:54.844Z,62.64
2019-03-12T18:10:25.479Z,60.65
2019-03-12T18:12:56.666Z,61.95
2019-03-12T18:15:27.088Z,62.28
2019-03-12T18:17:57.859Z,62.74
2019-03-12T18:20:28.493Z,62.97
2019-03-12T18:22:59.352Z,63.08
2019-03-12T18:25:38.389Z,63.25
2019-03-12T18:28:10.166Z,63.35
2019-03-12T18:30:40.637Z,63.39
2019-03-12T18:33:11.364Z,63.29
2019-03-12T18:35:42.143Z,63.99
2019-03-12T18:38:12.996Z,64.05
2019-03-12T18:40:43.850Z,63.95
2019-03-12T18:43:15.104Z,63.39
2019-03-12T18:45:45.795Z,63.27
2019-03-12T18:48:16.622Z,62.14
2019-03-12T18:50:48.286Z,61.45
2019-03-12T18:53:19.136Z,61.52
2019-03-12T18:55:53.182Z,61.82
2019-03-12T18:58:23.625Z,62.62
2019-03-12T19:00:54.466Z,63.09
2019-03-12T19:03:24.430Z,63.54
2019-03-12T19:05:54.966Z,64.12
2019-03-12T19:08:24.823Z,64.99
2019-03-12T19:10:55.351Z,65.53
2019-03-12T19:13:25.985Z,64.68
2019-03-12T19:15:55.949Z,63.83
2019-03-12T19:18:26.468Z,64.47
2019-03-12T19:20:57.239Z,65.06
2019-03-12T19:23:28.087Z,65.33
2019-03-12T19:25:58.832Z,65.18
2019-03-12T19:28:29.588Z,65.37
2019-03-12T19:31:13.944Z,65.69
2019-03-12T19:33:44.703Z,66.59
2019-03-12T19:36:15.568Z,67.26
2019-03-12T19:38:46.430Z,66.49
2019-03-12T19:41:17.091Z,64.72
2019-03-12T19:43:48.019Z,64.83
2019-03-12T19:46:18.791Z,65.67
2019-03-12T19:48:49.787Z,64.77
2019-03-12T19:51:21.217Z,65.19
2019-03-12T19:53:51.750Z,65.87
2019-03-12T19:56:22.623Z,65.68
2019-03-12T19:58:53.479Z,65.16
2019-03-12T20:01:24.112Z,65.25
2019-03-12T20:03:54.458Z,65.38
2019-03-12T20:06:24.552Z,65.58
2019-03-12T20:08:55.050Z,62.66
2019-03-12T20:11:48.519Z,60.95
2019-03-12T20:14:51.086Z,59.41
2019-03-12T20:17:36.955Z,57.38
2019-03-12T20:20:41.074Z,56.97
2019-03-12T20:23:31.647Z,58.19
2019-03-12T20:26:34.228Z,61.42
2019-03-12T20:29:20.223Z,61.90
2019-03-12T20:32:11.613Z,63.94
2019-03-12T20:35:06.320Z,64.39
2019-03-12T20:38:13.483Z,64.43
2019-03-12T20:40:49.384Z,65.15
2019-03-12T20:43:42.084Z,65.24
2019-03-12T20:46:38.604Z,65.34
2019-03-12T20:49:38.214Z,65.80
2019-03-12T20:52:32.685Z,66.12
2019-03-12T20:55:40.167Z,64.76
2019-03-12T20:58:47.538Z,64.28
2019-03-12T21:01:30.461Z,62.86
2019-03-12T21:04:19.519Z,62.93
2019-03-12T21:06:53.550Z,62.74
2019-03-12T21:09:43.719Z,62.15
2019-03-12T21:12:23.574Z,61.68
2019-03-12T21:15:26.133Z,61.67
2019-03-12T21:18:22.669Z,61.67
2019-03-12T21:21:21.968Z,61.37
2019-03-12T21:24:01.113Z,60.91
2019-03-12T21:26:43.400Z,60.66
2019-03-12T21:29:45.040Z,60.90
2019-03-12T21:32:16.715Z,60.45
2019-03-12T21:34:47.384Z,60.29
2019-03-12T21:37:17.816Z,60.39
2019-03-12T21:39:55.325Z,60.13
2019-03-12T21:42:20.690Z,59.91
2019-03-12T21:44:52.736Z,59.89
2019-03-12T21:47:23.079Z,59.13
2019-03-12T21:49:53.045Z,60.29
2019-03-12T21:52:24.486Z,60.37
2019-03-12T21:54:55.339Z,60.65
2019-03-12T21:57:26.094Z,61.23
2019-03-12T21:59:56.061Z,61.01
2019-03-12T22:02:26.581Z,61.35
2019-03-12T22:04:57.332Z,61.48
2019-03-12T22:07:28.089Z,61.61
2019-03-12T22:09:59.045Z,62.56
2019-03-12T22:12:29.920Z,62.46
2019-03-12T22:15:00.653Z,62.60
2019-03-12T22:17:31.511Z,62.86
2019-03-12T22:20:01.692Z,62.58
2019-03-12T22:22:33.758Z,62.71
2019-03-12T22:25:06.790Z,63.21
2019-03-12T22:27:37.200Z,63.32
2019-03-12T22:30:14.180Z,63.58
2019-03-12T22:32:44.833Z,63.32
2019-03-12T22:35:14.927Z,62.57
2019-03-12T22:37:45.439Z,62.28
2019-03-12T22:40:16.276Z,62.38
2019-03-12T22:42:47.128Z,62.97
2019-03-12T22:45:17.884Z,62.64
2019-03-12T22:47:48.637Z,61.95
2019-03-12T22:50:19.288Z,62.23
2019-03-12T22:52:51.902Z,61.85
2019-03-12T22:55:22.653Z,61.11
2019-03-12T22:57:53.500Z,61.62
2019-03-12T23:00:24.249Z,61.39
2019-03-12T23:02:54.811Z,61.41
2019-03-12T23:05:25.575Z,61.97
2019-03-12T23:07:56.321Z,61.97
2019-03-12T23:10:27.386Z,61.71
2019-03-12T23:12:58.235Z,61.24
2019-03-12T23:15:28.685Z,61.54
2019-03-12T23:17:59.447Z,59.51
2019-03-12T23:20:30.189Z,59.61
2019-03-12T23:23:00.847Z,60.49
2019-03-12T23:25:31.702Z,60.41
2019-03-12T23:28:02.454Z,60.93
2019-03-12T23:30:33.113Z,60.26
2019-03-12T23:33:03.960Z,57.74
2019-03-12T23:35:34.823Z,54.72
2019-03-12T23:38:05.579Z,53.38
2019-03-12T23:40:36.222Z,51.06
2019-03-12T23:43:06.978Z,51.64
2019-03-12T23:45:37.835Z,52.80
2019-03-12T23:48:08.589Z,53.73
2019-03-12T23:50:39.443Z,54.86
2019-03-12T23:53:10.508Z,56.95
2019-03-12T23:55:40.955Z,57.31
2019-03-12T23:58:11.707Z,58.51
